sensor_id;sensor_type;location;lat;lon;timestamp;P1;durP1;ratioP1;P2;durP2;ratioP2
64966;SDS011;51710;38.732;-121.358;2022-07-23T00:00:07;1.38;;;0.70;;
64966;SDS011;51710;38.732;-121.358;2022-07-23T00:02:34;1.02;;;0.60;;
64966;SDS011;51710;38.732;-121.358;2022-07-23T00:05:00;0.85;;;0.40;;
64966;SDS011;51710;38.732;-121.358;2022-07-23T00:07:27;1.52;;;0.50;;
64966;SDS011;51710;38.732;-121.358;2022-07-23T00:09:53;1.92;;;0.80;;
64966;SDS011;51710;38.732;-121.358;2022-07-23T00:12:20;1.00;;;0.60;;
64966;SDS011;51710;38.732;-121.358;2022-07-23T00:14:46;1.20;;;0.55;;
64966;SDS011;51710;38.732;-121.358;2022-07-23T00:17:12;0.77;;;0.70;;
64966;SDS011;51710;38.732;-121.358;2022-07-23T00:19:39;1.23;;;0.60;;
64966;SDS011;51710;38.732;-121.358;2022-07-23T00:22:05;1.20;;;0.60;;
64966;SDS011;51710;38.732;-121.358;2022-07-23T00:24:32;1.38;;;0.82;;
64966;SDS011;51710;38.732;-121.358;2022-07-23T00:26:58;1.75;;;0.75;;
64966;SDS011;51710;38.732;-121.358;2022-07-23T00:29:25;1.48;;;0.60;;
64966;SDS011;51710;38.732;-121.358;2022-07-23T00:31:51;2.55;;;0.80;;
64966;SDS011;51710;38.732;-121.358;2022-07-23T00:34:18;4.60;;;0.82;;
64966;SDS011;51710;38.732;-121.358;2022-07-23T00:36:44;0.73;;;0.68;;
64966;SDS011;51710;38.732;-121.358;2022-07-23T00:39:10;1.40;;;0.85;;
64966;SDS011;51710;38.732;-121.358;2022-07-23T00:41:36;1.42;;;0.80;;
64966;SDS011;51710;38.732;-121.358;2022-07-23T00:44:22;2.22;;;0.70;;
64966;SDS011;51710;38.732;-121.358;2022-07-23T00:46:54;1.98;;;0.98;;
64966;SDS011;51710;38.732;-121.358;2022-07-23T00:49:23;4.72;;;1.00;;
64966;SDS011;51710;38.732;-121.358;2022-07-23T00:51:52;1.40;;;0.80;;
64966;SDS011;51710;38.732;-121.358;2022-07-23T00:54:18;3.08;;;1.00;;
64966;SDS011;51710;38.732;-121.358;2022-07-23T00:56:47;4.03;;;1.00;;
64966;SDS011;51710;38.732;-121.358;2022-07-23T00:59:13;1.10;;;0.85;;
64966;SDS011;51710;38.732;-121.358;2022-07-23T01:01:40;1.90;;;0.80;;
64966;SDS011;51710;38.732;-121.358;2022-07-23T01:04:07;1.95;;;0.88;;
64966;SDS011;51710;38.732;-121.358;2022-07-23T01:06:34;0.93;;;0.70;;
64966;SDS011;51710;38.732;-121.358;2022-07-23T01:09:03;3.08;;;0.80;;
64966;SDS011;51710;38.732;-121.358;2022-07-23T01:11:34;1.50;;;0.90;;
64966;SDS011;51710;38.732;-121.358;2022-07-23T01:14:14;1.65;;;0.90;;
64966;SDS011;51710;38.732;-121.358;2022-07-23T01:16:43;2.28;;;0.85;;
64966;SDS011;51710;38.732;-121.358;2022-07-23T01:19:10;2.17;;;1.00;;
64966;SDS011;51710;38.732;-121.358;2022-07-23T01:21:40;1.80;;;0.85;;
64966;SDS011;51710;38.732;-121.358;2022-07-23T01:24:12;2.97;;;1.25;;
64966;SDS011;51710;38.732;-121.358;2022-07-23T01:26:40;3.63;;;1.00;;
64966;SDS011;51710;38.732;-121.358;2022-07-23T01:29:09;2.05;;;1.40;;
64966;SDS011;51710;38.732;-121.358;2022-07-23T01:31:36;2.72;;;1.05;;
64966;SDS011;51710;38.732;-121.358;2022-07-23T01:34:03;1.25;;;0.68;;
64966;SDS011;51710;38.732;-121.358;2022-07-23T01:36:35;2.28;;;1.00;;
64966;SDS011;51710;38.732;-121.358;2022-07-23T01:39:03;2.42;;;1.00;;
64966;SDS011;51710;38.732;-121.358;2022-07-23T01:41:30;3.17;;;1.55;;
64966;SDS011;51710;38.732;-121.358;2022-07-23T01:43:56;2.08;;;0.95;;
64966;SDS011;51710;38.732;-121.358;2022-07-23T01:46:23;2.08;;;0.90;;
64966;SDS011;51710;38.732;-121.358;2022-07-23T01:48:49;1.92;;;0.90;;
64966;SDS011;51710;38.732;-121.358;2022-07-23T01:51:16;2.35;;;1.15;;
64966;SDS011;51710;38.732;-121.358;2022-07-23T01:53:43;3.78;;;1.00;;
64966;SDS011;51710;38.732;-121.358;2022-07-23T01:56:09;2.72;;;0.90;;
64966;SDS011;51710;38.732;-121.358;2022-07-23T01:58:36;2.50;;;1.10;;
64966;SDS011;51710;38.732;-121.358;2022-07-23T02:01:02;2.20;;;0.90;;
64966;SDS011;51710;38.732;-121.358;2022-07-23T02:03:28;3.25;;;1.15;;
64966;SDS011;51710;38.732;-121.358;2022-07-23T02:05:55;1.95;;;0.90;;
64966;SDS011;51710;38.732;-121.358;2022-07-23T02:08:21;2.47;;;1.00;;
64966;SDS011;51710;38.732;-121.358;2022-07-23T02:10:47;1.98;;;1.08;;
64966;SDS011;51710;38.732;-121.358;2022-07-23T02:13:16;2.28;;;0.90;;
64966;SDS011;51710;38.732;-121.358;2022-07-23T02:15:43;3.22;;;1.05;;
64966;SDS011;51710;38.732;-121.358;2022-07-23T02:18:10;3.00;;;1.30;;
64966;SDS011;51710;38.732;-121.358;2022-07-23T02:20:36;3.10;;;1.52;;
64966;SDS011;51710;38.732;-121.358;2022-07-23T02:23:04;5.95;;;2.10;;
64966;SDS011;51710;38.732;-121.358;2022-07-23T02:25:31;3.88;;;1.98;;
64966;SDS011;51710;38.732;-121.358;2022-07-23T02:27:57;4.78;;;2.40;;
64966;SDS011;51710;38.732;-121.358;2022-07-23T02:30:24;4.30;;;2.20;;
64966;SDS011;51710;38.732;-121.358;2022-07-23T02:32:50;4.18;;;1.70;;
64966;SDS011;51710;38.732;-121.358;2022-07-23T02:35:17;2.33;;;1.30;;
64966;SDS011;51710;38.732;-121.358;2022-07-23T02:37:43;3.22;;;1.30;;
64966;SDS011;51710;38.732;-121.358;2022-07-23T02:40:10;3.83;;;1.30;;
64966;SDS011;51710;38.732;-121.358;2022-07-23T02:42:37;2.35;;;1.13;;
64966;SDS011;51710;38.732;-121.358;2022-07-23T02:45:03;2.35;;;1.05;;
64966;SDS011;51710;38.732;-121.358;2022-07-23T02:47:30;4.60;;;1.10;;
64966;SDS011;51710;38.732;-121.358;2022-07-23T02:49:57;2.53;;;1.10;;
64966;SDS011;51710;38.732;-121.358;2022-07-23T02:52:24;3.03;;;1.05;;
64966;SDS011;51710;38.732;-121.358;2022-07-23T02:54:50;4.03;;;1.42;;
64966;SDS011;51710;38.732;-121.358;2022-07-23T02:57:17;2.10;;;1.05;;
64966;SDS011;51710;38.732;-121.358;2022-07-23T02:59:43;3.53;;;1.13;;
64966;SDS011;51710;38.732;-121.358;2022-07-23T03:02:10;2.90;;;1.08;;
64966;SDS011;51710;38.732;-121.358;2022-07-23T03:04:36;3.03;;;1.23;;
64966;SDS011;51710;38.732;-121.358;2022-07-23T03:07:02;2.15;;;0.90;;
64966;SDS011;51710;38.732;-121.358;2022-07-23T03:09:28;2.00;;;1.20;;
64966;SDS011;51710;38.732;-121.358;2022-07-23T03:11:55;4.68;;;1.35;;
64966;SDS011;51710;38.732;-121.358;2022-07-23T03:14:21;2.45;;;1.02;;
64966;SDS011;51710;38.732;-121.358;2022-07-23T03:16:48;4.97;;;1.20;;
64966;SDS011;51710;38.732;-121.358;2022-07-23T03:19:15;1.15;;;0.80;;
64966;SDS011;51710;38.732;-121.358;2022-07-23T03:21:41;3.13;;;1.08;;
64966;SDS011;51710;38.732;-121.358;2022-07-23T03:24:08;2.78;;;1.05;;
64966;SDS011;51710;38.732;-121.358;2022-07-23T03:26:35;2.17;;;1.05;;
64966;SDS011;51710;38.732;-121.358;2022-07-23T03:29:02;2.47;;;0.90;;
64966;SDS011;51710;38.732;-121.358;2022-07-23T03:31:32;3.95;;;1.30;;
64966;SDS011;51710;38.732;-121.358;2022-07-23T03:33:58;5.50;;;1.17;;
64966;SDS011;51710;38.732;-121.358;2022-07-23T03:36:25;2.78;;;1.05;;
64966;SDS011;51710;38.732;-121.358;2022-07-23T03:38:54;4.47;;;1.15;;
64966;SDS011;51710;38.732;-121.358;2022-07-23T03:41:21;3.20;;;1.20;;
64966;SDS011;51710;38.732;-121.358;2022-07-23T03:43:47;2.92;;;1.52;;
64966;SDS011;51710;38.732;-121.358;2022-07-23T03:46:14;3.13;;;1.10;;
64966;SDS011;51710;38.732;-121.358;2022-07-23T03:48:40;3.03;;;1.05;;
64966;SDS011;51710;38.732;-121.358;2022-07-23T03:51:07;2.42;;;1.20;;
64966;SDS011;51710;38.732;-121.358;2022-07-23T03:53:33;3.08;;;1.25;;
64966;SDS011;51710;38.732;-121.358;2022-07-23T03:55:59;2.80;;;1.10;;
64966;SDS011;51710;38.732;-121.358;2022-07-23T03:58:26;4.07;;;1.00;;
64966;SDS011;51710;38.732;-121.358;2022-07-23T04:00:52;4.30;;;1.25;;
64966;SDS011;51710;38.732;-121.358;2022-07-23T04:03:19;3.90;;;1.15;;
64966;SDS011;51710;38.732;-121.358;2022-07-23T04:05:45;3.50;;;1.25;;
64966;SDS011;51710;38.732;-121.358;2022-07-23T04:08:12;3.63;;;1.27;;
64966;SDS011;51710;38.732;-121.358;2022-07-23T04:10:38;2.97;;;1.20;;
64966;SDS011;51710;38.732;-121.358;2022-07-23T04:13:04;2.45;;;1.08;;
64966;SDS011;51710;38.732;-121.358;2022-07-23T04:15:31;3.78;;;1.13;;
64966;SDS011;51710;38.732;-121.358;2022-07-23T04:17:58;2.20;;;0.90;;
64966;SDS011;51710;38.732;-121.358;2022-07-23T04:20:24;3.72;;;1.15;;
64966;SDS011;51710;38.732;-121.358;2022-07-23T04:22:50;4.75;;;1.40;;
64966;SDS011;51710;38.732;-121.358;2022-07-23T04:25:17;3.60;;;1.15;;
64966;SDS011;51710;38.732;-121.358;2022-07-23T04:27:43;4.90;;;1.00;;
64966;SDS011;51710;38.732;-121.358;2022-07-23T04:30:10;2.38;;;1.20;;
64966;SDS011;51710;38.732;-121.358;2022-07-23T04:32:36;3.42;;;1.70;;
64966;SDS011;51710;38.732;-121.358;2022-07-23T04:35:03;3.35;;;1.20;;
64966;SDS011;51710;38.732;-121.358;2022-07-23T04:37:30;3.88;;;1.40;;
64966;SDS011;51710;38.732;-121.358;2022-07-23T04:39:56;3.25;;;1.33;;
64966;SDS011;51710;38.732;-121.358;2022-07-23T04:42:23;4.82;;;1.35;;
64966;SDS011;51710;38.732;-121.358;2022-07-23T04:44:49;4.28;;;1.10;;
64966;SDS011;51710;38.732;-121.358;2022-07-23T04:47:15;2.15;;;0.93;;
64966;SDS011;51710;38.732;-121.358;2022-07-23T04:49:42;2.65;;;1.02;;
64966;SDS011;51710;38.732;-121.358;2022-07-23T04:52:08;2.78;;;1.00;;
64966;SDS011;51710;38.732;-121.358;2022-07-23T04:54:34;2.72;;;1.23;;
64966;SDS011;51710;38.732;-121.358;2022-07-23T04:57:01;4.20;;;1.10;;
64966;SDS011;51710;38.732;-121.358;2022-07-23T04:59:27;5.50;;;1.10;;
64966;SDS011;51710;38.732;-121.358;2022-07-23T05:01:53;5.45;;;1.40;;
64966;SDS011;51710;38.732;-121.358;2022-07-23T05:04:20;4.97;;;1.20;;
64966;SDS011;51710;38.732;-121.358;2022-07-23T05:06:46;3.63;;;1.42;;
64966;SDS011;51710;38.732;-121.358;2022-07-23T05:09:13;2.22;;;1.10;;
64966;SDS011;51710;38.732;-121.358;2022-07-23T05:11:39;3.28;;;1.08;;
64966;SDS011;51710;38.732;-121.358;2022-07-23T05:14:05;3.65;;;1.33;;
64966;SDS011;51710;38.732;-121.358;2022-07-23T05:16:32;2.63;;;1.20;;
64966;SDS011;51710;38.732;-121.358;2022-07-23T05:18:58;2.53;;;1.00;;
64966;SDS011;51710;38.732;-121.358;2022-07-23T05:21:25;3.53;;;1.20;;
64966;SDS011;51710;38.732;-121.358;2022-07-23T05:23:55;4.50;;;1.45;;
64966;SDS011;51710;38.732;-121.358;2022-07-23T05:26:22;3.13;;;1.10;;
64966;SDS011;51710;38.732;-121.358;2022-07-23T05:28:48;4.07;;;1.25;;
64966;SDS011;51710;38.732;-121.358;2022-07-23T05:31:14;2.55;;;1.10;;
64966;SDS011;51710;38.732;-121.358;2022-07-23T05:33:41;2.10;;;1.08;;
64966;SDS011;51710;38.732;-121.358;2022-07-23T05:36:08;3.35;;;1.27;;
64966;SDS011;51710;38.732;-121.358;2022-07-23T05:38:35;3.60;;;1.23;;
64966;SDS011;51710;38.732;-121.358;2022-07-23T05:41:02;3.17;;;1.20;;
64966;SDS011;51710;38.732;-121.358;2022-07-23T05:43:28;2.05;;;1.00;;
64966;SDS011;51710;38.732;-121.358;2022-07-23T05:45:55;3.53;;;1.20;;
64966;SDS011;51710;38.732;-121.358;2022-07-23T05:48:21;4.60;;;1.20;;
64966;SDS011;51710;38.732;-121.358;2022-07-23T05:50:47;2.53;;;1.15;;
64966;SDS011;51710;38.732;-121.358;2022-07-23T05:53:14;4.03;;;1.17;;
64966;SDS011;51710;38.732;-121.358;2022-07-23T05:55:40;3.42;;;1.15;;
64966;SDS011;51710;38.732;-121.358;2022-07-23T05:58:07;3.30;;;1.17;;
64966;SDS011;51710;38.732;-121.358;2022-07-23T06:00:34;2.47;;;1.10;;
64966;SDS011;51710;38.732;-121.358;2022-07-23T06:03:01;3.47;;;1.10;;
64966;SDS011;51710;38.732;-121.358;2022-07-23T06:05:27;2.47;;;1.00;;
64966;SDS011;51710;38.732;-121.358;2022-07-23T06:07:54;3.45;;;1.20;;
64966;SDS011;51710;38.732;-121.358;2022-07-23T06:10:20;5.95;;;1.13;;
64966;SDS011;51710;38.732;-121.358;2022-07-23T06:12:47;2.70;;;1.08;;
64966;SDS011;51710;38.732;-121.358;2022-07-23T06:15:13;2.25;;;1.10;;
64966;SDS011;51710;38.732;-121.358;2022-07-23T06:17:40;2.10;;;1.05;;
64966;SDS011;51710;38.732;-121.358;2022-07-23T06:20:07;4.85;;;1.08;;
64966;SDS011;51710;38.732;-121.358;2022-07-23T06:22:35;6.00;;;1.23;;
64966;SDS011;51710;38.732;-121.358;2022-07-23T06:25:01;4.05;;;1.17;;
64966;SDS011;51710;38.732;-121.358;2022-07-23T06:27:28;3.92;;;1.38;;
64966;SDS011;51710;38.732;-121.358;2022-07-23T06:29:54;6.50;;;1.50;;
64966;SDS011;51710;38.732;-121.358;2022-07-23T06:32:21;3.40;;;1.25;;
64966;SDS011;51710;38.732;-121.358;2022-07-23T06:34:47;4.90;;;1.35;;
64966;SDS011;51710;38.732;-121.358;2022-07-23T06:37:14;5.57;;;1.13;;
64966;SDS011;51710;38.732;-121.358;2022-07-23T06:39:41;4.47;;;1.17;;
64966;SDS011;51710;38.732;-121.358;2022-07-23T06:42:08;3.83;;;0.98;;
64966;SDS011;51710;38.732;-121.358;2022-07-23T06:44:35;4.13;;;1.20;;
64966;SDS011;51710;38.732;-121.358;2022-07-23T06:47:02;2.50;;;1.00;;
64966;SDS011;51710;38.732;-121.358;2022-07-23T06:49:28;3.17;;;1.17;;
64966;SDS011;51710;38.732;-121.358;2022-07-23T06:51:54;2.53;;;1.20;;
64966;SDS011;51710;38.732;-121.358;2022-07-23T06:54:21;2.13;;;1.08;;
64966;SDS011;51710;38.732;-121.358;2022-07-23T06:56:47;5.30;;;1.15;;
64966;SDS011;51710;38.732;-121.358;2022-07-23T06:59:14;3.83;;;1.00;;
64966;SDS011;51710;38.732;-121.358;2022-07-23T07:01:40;5.10;;;1.60;;
64966;SDS011;51710;38.732;-121.358;2022-07-23T07:04:07;5.47;;;1.15;;
64966;SDS011;51710;38.732;-121.358;2022-07-23T07:06:33;2.50;;;1.13;;
64966;SDS011;51710;38.732;-121.358;2022-07-23T07:09:00;2.08;;;1.00;;
64966;SDS011;51710;38.732;-121.358;2022-07-23T07:11:26;2.42;;;1.10;;
64966;SDS011;51710;38.732;-121.358;2022-07-23T07:13:53;4.18;;;1.48;;
64966;SDS011;51710;38.732;-121.358;2022-07-23T07:16:19;4.82;;;1.17;;
64966;SDS011;51710;38.732;-121.358;2022-07-23T07:18:46;4.40;;;1.40;;
64966;SDS011;51710;38.732;-121.358;2022-07-23T07:21:12;3.30;;;1.20;;
64966;SDS011;51710;38.732;-121.358;2022-07-23T07:23:39;3.03;;;1.08;;
64966;SDS011;51710;38.732;-121.358;2022-07-23T07:26:05;3.47;;;1.17;;
64966;SDS011;51710;38.732;-121.358;2022-07-23T07:28:32;3.63;;;1.10;;
64966;SDS011;51710;38.732;-121.358;2022-07-23T07:30:58;3.85;;;1.00;;
64966;SDS011;51710;38.732;-121.358;2022-07-23T07:33:25;3.65;;;0.98;;
64966;SDS011;51710;38.732;-121.358;2022-07-23T07:35:54;4.10;;;1.20;;
64966;SDS011;51710;38.732;-121.358;2022-07-23T07:38:21;2.92;;;1.33;;
64966;SDS011;51710;38.732;-121.358;2022-07-23T07:40:47;2.90;;;1.13;;
64966;SDS011;51710;38.732;-121.358;2022-07-23T07:43:14;5.72;;;1.30;;
64966;SDS011;51710;38.732;-121.358;2022-07-23T07:45:40;3.72;;;1.10;;
64966;SDS011;51710;38.732;-121.358;2022-07-23T07:48:06;1.58;;;0.90;;
64966;SDS011;51710;38.732;-121.358;2022-07-23T07:50:33;2.85;;;1.25;;
64966;SDS011;51710;38.732;-121.358;2022-07-23T07:52:59;3.03;;;1.20;;
64966;SDS011;51710;38.732;-121.358;2022-07-23T07:55:25;2.78;;;1.23;;
64966;SDS011;51710;38.732;-121.358;2022-07-23T07:57:53;2.97;;;1.20;;
64966;SDS011;51710;38.732;-121.358;2022-07-23T08:00:20;7.53;;;1.35;;
64966;SDS011;51710;38.732;-121.358;2022-07-23T08:02:50;3.35;;;1.15;;
64966;SDS011;51710;38.732;-121.358;2022-07-23T08:05:19;3.05;;;1.25;;
64966;SDS011;51710;38.732;-121.358;2022-07-23T08:07:47;5.05;;;1.27;;
64966;SDS011;51710;38.732;-121.358;2022-07-23T08:10:14;3.88;;;1.08;;
64966;SDS011;51710;38.732;-121.358;2022-07-23T08:12:42;5.18;;;1.52;;
64966;SDS011;51710;38.732;-121.358;2022-07-23T08:15:10;2.97;;;1.33;;
64966;SDS011;51710;38.732;-121.358;2022-07-23T08:17:38;3.63;;;1.13;;
64966;SDS011;51710;38.732;-121.358;2022-07-23T08:20:05;4.93;;;1.55;;
64966;SDS011;51710;38.732;-121.358;2022-07-23T08:25:29;2.22;;;1.00;;
64966;SDS011;51710;38.732;-121.358;2022-07-23T08:27:57;3.88;;;1.40;;
64966;SDS011;51710;38.732;-121.358;2022-07-23T08:30:25;4.07;;;1.10;;
64966;SDS011;51710;38.732;-121.358;2022-07-23T08:32:53;4.72;;;1.20;;
64966;SDS011;51710;38.732;-121.358;2022-07-23T08:35:27;3.03;;;1.00;;
64966;SDS011;51710;38.732;-121.358;2022-07-23T08:37:58;3.28;;;1.70;;
64966;SDS011;51710;38.732;-121.358;2022-07-23T08:40:27;4.28;;;1.13;;
64966;SDS011;51710;38.732;-121.358;2022-07-23T08:42:55;4.85;;;1.17;;
64966;SDS011;51710;38.732;-121.358;2022-07-23T08:45:23;3.65;;;1.45;;
64966;SDS011;51710;38.732;-121.358;2022-07-23T08:47:51;5.13;;;1.77;;
64966;SDS011;51710;38.732;-121.358;2022-07-23T08:50:20;3.38;;;1.48;;
64966;SDS011;51710;38.732;-121.358;2022-07-23T08:52:50;4.10;;;1.50;;
64966;SDS011;51710;38.732;-121.358;2022-07-23T08:55:18;5.85;;;1.30;;
64966;SDS011;51710;38.732;-121.358;2022-07-23T08:57:51;4.97;;;1.30;;
64966;SDS011;51710;38.732;-121.358;2022-07-23T09:00:19;4.05;;;1.45;;
64966;SDS011;51710;38.732;-121.358;2022-07-23T09:02:47;4.25;;;1.23;;
64966;SDS011;51710;38.732;-121.358;2022-07-23T09:05:14;3.53;;;1.20;;
64966;SDS011;51710;38.732;-121.358;2022-07-23T09:10:50;5.30;;;1.40;;
64966;SDS011;51710;38.732;-121.358;2022-07-23T09:18:37;4.35;;;1.38;;
64966;SDS011;51710;38.732;-121.358;2022-07-23T09:21:06;3.60;;;1.23;;
64966;SDS011;51710;38.732;-121.358;2022-07-23T09:23:40;2.78;;;1.30;;
64966;SDS011;51710;38.732;-121.358;2022-07-23T09:26:20;5.57;;;1.40;;
64966;SDS011;51710;38.732;-121.358;2022-07-23T09:31:23;2.88;;;1.13;;
64966;SDS011;51710;38.732;-121.358;2022-07-23T09:33:50;4.35;;;1.38;;
64966;SDS011;51710;38.732;-121.358;2022-07-23T09:36:27;5.55;;;1.58;;
64966;SDS011;51710;38.732;-121.358;2022-07-23T09:38:55;4.97;;;1.50;;
64966;SDS011;51710;38.732;-121.358;2022-07-23T09:41:21;3.38;;;1.23;;
64966;SDS011;51710;38.732;-121.358;2022-07-23T09:43:53;5.43;;;1.75;;
64966;SDS011;51710;38.732;-121.358;2022-07-23T09:46:27;4.10;;;1.17;;
64966;SDS011;51710;38.732;-121.358;2022-07-23T09:48:54;3.58;;;1.30;;
64966;SDS011;51710;38.732;-121.358;2022-07-23T09:51:24;4.60;;;1.55;;
64966;SDS011;51710;38.732;-121.358;2022-07-23T09:53:53;3.15;;;1.20;;
64966;SDS011;51710;38.732;-121.358;2022-07-23T09:56:19;5.95;;;1.52;;
64966;SDS011;51710;38.732;-121.358;2022-07-23T09:58:49;4.63;;;1.63;;
64966;SDS011;51710;38.732;-121.358;2022-07-23T10:01:39;3.72;;;1.20;;
64966;SDS011;51710;38.732;-121.358;2022-07-23T10:04:05;3.90;;;1.10;;
64966;SDS011;51710;38.732;-121.358;2022-07-23T10:06:32;3.17;;;1.35;;
64966;SDS011;51710;38.732;-121.358;2022-07-23T10:09:00;3.85;;;1.40;;
64966;SDS011;51710;38.732;-121.358;2022-07-23T10:11:27;4.38;;;1.27;;
64966;SDS011;51710;38.732;-121.358;2022-07-23T10:13:56;5.00;;;1.63;;
64966;SDS011;51710;38.732;-121.358;2022-07-23T10:16:28;3.90;;;1.38;;
64966;SDS011;51710;38.732;-121.358;2022-07-23T10:18:54;4.10;;;1.05;;
64966;SDS011;51710;38.732;-121.358;2022-07-23T10:21:24;6.30;;;1.50;;
64966;SDS011;51710;38.732;-121.358;2022-07-23T10:24:28;4.47;;;1.65;;
64966;SDS011;51710;38.732;-121.358;2022-07-23T10:30:05;3.90;;;1.25;;
64966;SDS011;51710;38.732;-121.358;2022-07-23T10:32:49;5.40;;;1.45;;
64966;SDS011;51710;38.732;-121.358;2022-07-23T10:41:32;5.30;;;1.27;;
64966;SDS011;51710;38.732;-121.358;2022-07-23T10:44:37;3.55;;;1.42;;
64966;SDS011;51710;38.732;-121.358;2022-07-23T10:47:03;3.40;;;1.20;;
64966;SDS011;51710;38.732;-121.358;2022-07-23T10:49:33;5.72;;;1.40;;
64966;SDS011;51710;38.732;-121.358;2022-07-23T10:52:33;4.97;;;1.50;;
64966;SDS011;51710;38.732;-121.358;2022-07-23T10:54:53;4.22;;;1.30;;
64966;SDS011;51710;38.732;-121.358;2022-07-23T10:57:24;4.78;;;1.60;;
64966;SDS011;51710;38.732;-121.358;2022-07-23T11:02:47;6.38;;;1.90;;
64966;SDS011;51710;38.732;-121.358;2022-07-23T11:05:20;7.20;;;2.05;;
64966;SDS011;51710;38.732;-121.358;2022-07-23T11:14:03;5.68;;;1.85;;
64966;SDS011;51710;38.732;-121.358;2022-07-23T11:16:13;5.90;;;1.63;;
64966;SDS011;51710;38.732;-121.358;2022-07-23T11:24:11;9.87;;;2.13;;
64966;SDS011;51710;38.732;-121.358;2022-07-23T11:31:57;4.47;;;1.77;;
64966;SDS011;51710;38.732;-121.358;2022-07-23T11:34:39;5.82;;;1.65;;
64966;SDS011;51710;38.732;-121.358;2022-07-23T11:37:12;6.25;;;1.45;;
64966;SDS011;51710;38.732;-121.358;2022-07-23T11:40:00;6.93;;;2.05;;
64966;SDS011;51710;38.732;-121.358;2022-07-23T11:42:31;5.75;;;1.50;;
64966;SDS011;51710;38.732;-121.358;2022-07-23T11:44:58;6.68;;;2.13;;
64966;SDS011;51710;38.732;-121.358;2022-07-23T11:47:25;6.03;;;1.70;;
64966;SDS011;51710;38.732;-121.358;2022-07-23T11:49:53;4.97;;;1.92;;
64966;SDS011;51710;38.732;-121.358;2022-07-23T11:52:21;4.63;;;1.58;;
64966;SDS011;51710;38.732;-121.358;2022-07-23T11:57:36;6.68;;;1.83;;
64966;SDS011;51710;38.732;-121.358;2022-07-23T12:00:06;7.57;;;1.70;;
64966;SDS011;51710;38.732;-121.358;2022-07-23T12:02:45;6.63;;;1.65;;
64966;SDS011;51710;38.732;-121.358;2022-07-23T12:05:14;6.82;;;1.73;;
64966;SDS011;51710;38.732;-121.358;2022-07-23T12:07:43;11.20;;;2.33;;
64966;SDS011;51710;38.732;-121.358;2022-07-23T12:10:22;4.78;;;1.40;;
64966;SDS011;51710;38.732;-121.358;2022-07-23T12:12:51;9.95;;;1.88;;
64966;SDS011;51710;38.732;-121.358;2022-07-23T12:15:38;6.53;;;1.92;;
64966;SDS011;51710;38.732;-121.358;2022-07-23T12:18:14;6.57;;;1.90;;
64966;SDS011;51710;38.732;-121.358;2022-07-23T12:20:43;7.15;;;1.50;;
64966;SDS011;51710;38.732;-121.358;2022-07-23T12:23:12;7.43;;;1.92;;
64966;SDS011;51710;38.732;-121.358;2022-07-23T12:25:43;8.20;;;1.92;;
64966;SDS011;51710;38.732;-121.358;2022-07-23T12:28:14;6.40;;;1.88;;
64966;SDS011;51710;38.732;-121.358;2022-07-23T12:30:43;6.38;;;1.58;;
64966;SDS011;51710;38.732;-121.358;2022-07-23T12:33:12;4.93;;;1.80;;
64966;SDS011;51710;38.732;-121.358;2022-07-23T12:35:42;7.07;;;1.63;;
64966;SDS011;51710;38.732;-121.358;2022-07-23T12:38:12;5.28;;;1.80;;
64966;SDS011;51710;38.732;-121.358;2022-07-23T12:40:43;6.13;;;1.70;;
64966;SDS011;51710;38.732;-121.358;2022-07-23T12:43:21;6.95;;;1.85;;
64966;SDS011;51710;38.732;-121.358;2022-07-23T12:45:53;4.93;;;1.40;;
64966;SDS011;51710;38.732;-121.358;2022-07-23T12:48:32;7.75;;;1.60;;
64966;SDS011;51710;38.732;-121.358;2022-07-23T12:53:41;6.22;;;2.00;;
64966;SDS011;51710;38.732;-121.358;2022-07-23T12:56:17;5.82;;;1.60;;
64966;SDS011;51710;38.732;-121.358;2022-07-23T12:58:52;6.38;;;1.65;;
64966;SDS011;51710;38.732;-121.358;2022-07-23T13:06:27;3.22;;;1.73;;
64966;SDS011;51710;38.732;-121.358;2022-07-23T13:09:06;6.10;;;1.90;;
64966;SDS011;51710;38.732;-121.358;2022-07-23T13:11:33;7.22;;;2.00;;
64966;SDS011;51710;38.732;-121.358;2022-07-23T13:14:00;7.93;;;2.05;;
64966;SDS011;51710;38.732;-121.358;2022-07-23T13:16:28;4.55;;;1.40;;
64966;SDS011;51710;38.732;-121.358;2022-07-23T13:18:55;7.00;;;1.83;;
64966;SDS011;51710;38.732;-121.358;2022-07-23T13:21:23;8.38;;;1.45;;
64966;SDS011;51710;38.732;-121.358;2022-07-23T13:23:50;3.42;;;1.30;;
64966;SDS011;51710;38.732;-121.358;2022-07-23T13:26:16;8.23;;;1.88;;
64966;SDS011;51710;38.732;-121.358;2022-07-23T13:28:43;6.03;;;1.58;;
64966;SDS011;51710;38.732;-121.358;2022-07-23T13:31:10;4.50;;;1.80;;
64966;SDS011;51710;38.732;-121.358;2022-07-23T13:33:36;5.97;;;1.42;;
64966;SDS011;51710;38.732;-121.358;2022-07-23T13:36:03;8.00;;;1.50;;
64966;SDS011;51710;38.732;-121.358;2022-07-23T13:38:30;5.80;;;1.65;;
64966;SDS011;51710;38.732;-121.358;2022-07-23T13:40:56;5.05;;;1.60;;
64966;SDS011;51710;38.732;-121.358;2022-07-23T13:43:23;6.00;;;1.60;;
64966;SDS011;51710;38.732;-121.358;2022-07-23T13:45:51;5.05;;;1.75;;
64966;SDS011;51710;38.732;-121.358;2022-07-23T13:48:19;5.65;;;1.70;;
64966;SDS011;51710;38.732;-121.358;2022-07-23T13:50:45;6.25;;;1.58;;
64966;SDS011;51710;38.732;-121.358;2022-07-23T13:53:15;5.25;;;1.70;;
64966;SDS011;51710;38.732;-121.358;2022-07-23T13:55:47;5.53;;;1.27;;
64966;SDS011;51710;38.732;-121.358;2022-07-23T13:58:14;4.15;;;1.50;;
64966;SDS011;51710;38.732;-121.358;2022-07-23T14:00:45;7.00;;;1.80;;
64966;SDS011;51710;38.732;-121.358;2022-07-23T14:03:13;6.00;;;1.70;;
64966;SDS011;51710;38.732;-121.358;2022-07-23T14:05:41;6.53;;;1.35;;
64966;SDS011;51710;38.732;-121.358;2022-07-23T14:08:07;7.32;;;1.58;;
64966;SDS011;51710;38.732;-121.358;2022-07-23T14:10:34;4.30;;;1.40;;
64966;SDS011;51710;38.732;-121.358;2022-07-23T14:13:00;5.32;;;1.30;;
64966;SDS011;51710;38.732;-121.358;2022-07-23T14:15:29;4.90;;;1.50;;
64966;SDS011;51710;38.732;-121.358;2022-07-23T14:17:56;5.55;;;1.35;;
64966;SDS011;51710;38.732;-121.358;2022-07-23T14:20:24;5.18;;;1.75;;
64966;SDS011;51710;38.732;-121.358;2022-07-23T14:22:51;6.35;;;1.33;;
64966;SDS011;51710;38.732;-121.358;2022-07-23T14:25:19;7.32;;;1.52;;
64966;SDS011;51710;38.732;-121.358;2022-07-23T14:27:45;3.78;;;1.20;;
64966;SDS011;51710;38.732;-121.358;2022-07-23T14:30:12;6.43;;;1.85;;
64966;SDS011;51710;38.732;-121.358;2022-07-23T14:32:40;4.13;;;1.23;;
64966;SDS011;51710;38.732;-121.358;2022-07-23T14:35:07;8.00;;;1.95;;
64966;SDS011;51710;38.732;-121.358;2022-07-23T14:37:33;7.70;;;1.92;;
64966;SDS011;51710;38.732;-121.358;2022-07-23T14:39:59;5.70;;;1.77;;
64966;SDS011;51710;38.732;-121.358;2022-07-23T14:42:26;8.48;;;1.80;;
64966;SDS011;51710;38.732;-121.358;2022-07-23T14:44:52;9.05;;;1.73;;
64966;SDS011;51710;38.732;-121.358;2022-07-23T14:47:18;8.38;;;2.00;;
64966;SDS011;51710;38.732;-121.358;2022-07-23T14:49:45;6.20;;;1.55;;
64966;SDS011;51710;38.732;-121.358;2022-07-23T14:52:11;7.10;;;2.03;;
64966;SDS011;51710;38.732;-121.358;2022-07-23T14:54:37;5.35;;;1.52;;
64966;SDS011;51710;38.732;-121.358;2022-07-23T14:57:04;8.70;;;2.10;;
64966;SDS011;51710;38.732;-121.358;2022-07-23T14:59:32;6.15;;;1.50;;
64966;SDS011;51710;38.732;-121.358;2022-07-23T15:01:59;6.47;;;1.75;;
64966;SDS011;51710;38.732;-121.358;2022-07-23T15:04:25;6.05;;;1.77;;
64966;SDS011;51710;38.732;-121.358;2022-07-23T15:06:51;3.80;;;1.50;;